sensor_id;sensor_type;location;lat;lon;timestamp;P1;durP1;ratioP1;P2;durP2;ratioP2
16979;SDS011;42288;52.182;21.156;2023-04-28T00:01:48;42.27;;;19.73;;
16979;SDS011;42288;52.182;21.156;2023-04-28T00:04:14;36.50;;;18.97;;
16979;SDS011;42288;52.182;21.156;2023-04-28T00:06:40;31.23;;;17.10;;
16979;SDS011;42288;52.182;21.156;2023-04-28T00:09:05;37.33;;;17.83;;
16979;SDS011;42288;52.182;21.156;2023-04-28T00:11:35;37.63;;;18.10;;
16979;SDS011;42288;52.182;21.156;2023-04-28T00:14:04;33.17;;;17.13;;
16979;SDS011;42288;52.182;21.156;2023-04-28T00:16:29;32.47;;;15.93;;
16979;SDS011;42288;52.182;21.156;2023-04-28T00:18:55;35.50;;;17.03;;
16979;SDS011;42288;52.182;21.156;2023-04-28T00:21:21;35.23;;;16.77;;
16979;SDS011;42288;52.182;21.156;2023-04-28T00:23:47;30.53;;;16.10;;
16979;SDS011;42288;52.182;21.156;2023-04-28T00:26:12;29.87;;;15.17;;
16979;SDS011;42288;52.182;21.156;2023-04-28T00:28:38;37.17;;;17.40;;
16979;SDS011;42288;52.182;21.156;2023-04-28T00:31:09;38.00;;;17.47;;
16979;SDS011;42288;52.182;21.156;2023-04-28T00:33:38;48.03;;;21.43;;
16979;SDS011;42288;52.182;21.156;2023-04-28T00:36:04;43.97;;;21.10;;
16979;SDS011;42288;52.182;21.156;2023-04-28T00:38:30;47.37;;;21.50;;
16979;SDS011;42288;52.182;21.156;2023-04-28T00:40:56;58.47;;;25.93;;
16979;SDS011;42288;52.182;21.156;2023-04-28T00:43:22;57.70;;;23.30;;
16979;SDS011;42288;52.182;21.156;2023-04-28T00:45:48;56.40;;;24.00;;
16979;SDS011;42288;52.182;21.156;2023-04-28T00:48:14;46.40;;;20.63;;
16979;SDS011;42288;52.182;21.156;2023-04-28T00:50:41;44.40;;;20.53;;
16979;SDS011;42288;52.182;21.156;2023-04-28T00:53:07;41.10;;;20.53;;
16979;SDS011;42288;52.182;21.156;2023-04-28T00:55:34;36.17;;;18.23;;
16979;SDS011;42288;52.182;21.156;2023-04-28T00:58:00;34.10;;;17.20;;
16979;SDS011;42288;52.182;21.156;2023-04-28T01:00:26;36.80;;;17.23;;
16979;SDS011;42288;52.182;21.156;2023-04-28T01:02:52;35.07;;;17.27;;
16979;SDS011;42288;52.182;21.156;2023-04-28T01:05:19;36.77;;;17.80;;
16979;SDS011;42288;52.182;21.156;2023-04-28T01:07:45;32.77;;;16.27;;
16979;SDS011;42288;52.182;21.156;2023-04-28T01:10:10;31.63;;;15.93;;
16979;SDS011;42288;52.182;21.156;2023-04-28T01:12:36;31.20;;;15.37;;
16979;SDS011;42288;52.182;21.156;2023-04-28T01:15:01;32.47;;;17.70;;
16979;SDS011;42288;52.182;21.156;2023-04-28T01:17:28;30.47;;;15.17;;
16979;SDS011;42288;52.182;21.156;2023-04-28T01:19:53;32.23;;;15.47;;
16979;SDS011;42288;52.182;21.156;2023-04-28T01:22:19;31.73;;;15.50;;
16979;SDS011;42288;52.182;21.156;2023-04-28T01:24:45;29.67;;;15.67;;
16979;SDS011;42288;52.182;21.156;2023-04-28T01:27:11;32.20;;;15.60;;
16979;SDS011;42288;52.182;21.156;2023-04-28T01:29:36;33.80;;;16.37;;
16979;SDS011;42288;52.182;21.156;2023-04-28T01:32:02;29.30;;;15.10;;
16979;SDS011;42288;52.182;21.156;2023-04-28T01:34:28;27.50;;;14.53;;
16979;SDS011;42288;52.182;21.156;2023-04-28T01:36:53;30.67;;;14.93;;
16979;SDS011;42288;52.182;21.156;2023-04-28T01:39:19;31.40;;;15.10;;
16979;SDS011;42288;52.182;21.156;2023-04-28T01:41:44;29.27;;;14.50;;
16979;SDS011;42288;52.182;21.156;2023-04-28T01:44:10;31.40;;;14.47;;
16979;SDS011;42288;52.182;21.156;2023-04-28T01:46:37;27.77;;;13.67;;
16979;SDS011;42288;52.182;21.156;2023-04-28T01:49:03;32.07;;;14.97;;
16979;SDS011;42288;52.182;21.156;2023-04-28T01:51:28;30.07;;;15.87;;
16979;SDS011;42288;52.182;21.156;2023-04-28T01:53:55;28.47;;;15.57;;
16979;SDS011;42288;52.182;21.156;2023-04-28T01:56:20;32.97;;;15.57;;
16979;SDS011;42288;52.182;21.156;2023-04-28T01:58:46;29.83;;;15.40;;
16979;SDS011;42288;52.182;21.156;2023-04-28T02:01:12;29.13;;;15.03;;
16979;SDS011;42288;52.182;21.156;2023-04-28T02:03:37;32.23;;;15.07;;
16979;SDS011;42288;52.182;21.156;2023-04-28T02:06:03;28.53;;;15.27;;
16979;SDS011;42288;52.182;21.156;2023-04-28T02:08:29;31.13;;;14.63;;
16979;SDS011;42288;52.182;21.156;2023-04-28T02:10:55;28.20;;;14.50;;
16979;SDS011;42288;52.182;21.156;2023-04-28T02:13:22;30.17;;;14.60;;
16979;SDS011;42288;52.182;21.156;2023-04-28T02:15:47;27.87;;;14.73;;
16979;SDS011;42288;52.182;21.156;2023-04-28T02:18:13;32.33;;;14.63;;
16979;SDS011;42288;52.182;21.156;2023-04-28T02:20:39;31.30;;;13.70;;
16979;SDS011;42288;52.182;21.156;2023-04-28T02:23:04;30.57;;;15.03;;
16979;SDS011;42288;52.182;21.156;2023-04-28T02:25:30;32.57;;;16.23;;
16979;SDS011;42288;52.182;21.156;2023-04-28T02:27:56;31.80;;;15.00;;
16979;SDS011;42288;52.182;21.156;2023-04-28T02:30:21;32.87;;;15.07;;
16979;SDS011;42288;52.182;21.156;2023-04-28T02:32:47;31.47;;;15.50;;
16979;SDS011;42288;52.182;21.156;2023-04-28T02:35:13;30.77;;;14.83;;
16979;SDS011;42288;52.182;21.156;2023-04-28T02:37:38;28.77;;;15.30;;
16979;SDS011;42288;52.182;21.156;2023-04-28T02:40:04;37.33;;;16.47;;
16979;SDS011;42288;52.182;21.156;2023-04-28T02:42:31;33.17;;;16.07;;
16979;SDS011;42288;52.182;21.156;2023-04-28T02:44:56;31.50;;;16.07;;
16979;SDS011;42288;52.182;21.156;2023-04-28T02:47:22;33.77;;;16.27;;
16979;SDS011;42288;52.182;21.156;2023-04-28T02:49:48;30.53;;;15.60;;
16979;SDS011;42288;52.182;21.156;2023-04-28T02:52:13;29.70;;;15.77;;
16979;SDS011;42288;52.182;21.156;2023-04-28T02:54:39;30.63;;;15.40;;
16979;SDS011;42288;52.182;21.156;2023-04-28T02:57:05;32.97;;;15.77;;
16979;SDS011;42288;52.182;21.156;2023-04-28T02:59:30;33.00;;;16.53;;
16979;SDS011;42288;52.182;21.156;2023-04-28T03:01:56;31.63;;;16.07;;
16979;SDS011;42288;52.182;21.156;2023-04-28T03:04:21;32.60;;;15.60;;
16979;SDS011;42288;52.182;21.156;2023-04-28T03:06:47;30.60;;;15.93;;
16979;SDS011;42288;52.182;21.156;2023-04-28T03:09:13;37.83;;;17.10;;
16979;SDS011;42288;52.182;21.156;2023-04-28T03:11:40;33.70;;;16.77;;
16979;SDS011;42288;52.182;21.156;2023-04-28T03:14:05;32.17;;;15.17;;
16979;SDS011;42288;52.182;21.156;2023-04-28T03:16:31;35.13;;;15.73;;
16979;SDS011;42288;52.182;21.156;2023-04-28T03:18:57;31.30;;;15.53;;
16979;SDS011;42288;52.182;21.156;2023-04-28T03:21:23;39.83;;;20.43;;
16979;SDS011;42288;52.182;21.156;2023-04-28T03:23:50;36.40;;;17.47;;
16979;SDS011;42288;52.182;21.156;2023-04-28T03:26:16;40.73;;;18.33;;
16979;SDS011;42288;52.182;21.156;2023-04-28T03:28:41;38.10;;;18.33;;
16979;SDS011;42288;52.182;21.156;2023-04-28T03:31:07;38.20;;;16.97;;
16979;SDS011;42288;52.182;21.156;2023-04-28T03:33:32;38.70;;;18.83;;
16979;SDS011;42288;52.182;21.156;2023-04-28T03:35:58;37.67;;;18.00;;
16979;SDS011;42288;52.182;21.156;2023-04-28T03:38:24;33.93;;;17.43;;
16979;SDS011;42288;52.182;21.156;2023-04-28T03:40:50;34.83;;;17.87;;
16979;SDS011;42288;52.182;21.156;2023-04-28T03:43:15;39.47;;;18.20;;
16979;SDS011;42288;52.182;21.156;2023-04-28T03:45:41;39.40;;;17.13;;
16979;SDS011;42288;52.182;21.156;2023-04-28T03:48:06;38.80;;;18.70;;
16979;SDS011;42288;52.182;21.156;2023-04-28T03:50:32;35.67;;;17.70;;
16979;SDS011;42288;52.182;21.156;2023-04-28T03:52:58;36.57;;;16.43;;
16979;SDS011;42288;52.182;21.156;2023-04-28T03:55:23;36.47;;;17.57;;
16979;SDS011;42288;52.182;21.156;2023-04-28T03:57:50;34.13;;;17.77;;
16979;SDS011;42288;52.182;21.156;2023-04-28T04:00:16;38.17;;;17.33;;
16979;SDS011;42288;52.182;21.156;2023-04-28T04:02:41;36.33;;;18.53;;
16979;SDS011;42288;52.182;21.156;2023-04-28T04:05:07;49.30;;;21.33;;
16979;SDS011;42288;52.182;21.156;2023-04-28T04:07:33;40.60;;;20.23;;
16979;SDS011;42288;52.182;21.156;2023-04-28T04:09:58;41.70;;;19.17;;
16979;SDS011;42288;52.182;21.156;2023-04-28T04:12:24;38.03;;;18.80;;
16979;SDS011;42288;52.182;21.156;2023-04-28T04:14:49;41.87;;;20.60;;
16979;SDS011;42288;52.182;21.156;2023-04-28T04:17:15;44.40;;;22.63;;
16979;SDS011;42288;52.182;21.156;2023-04-28T04:19:40;44.23;;;22.90;;
16979;SDS011;42288;52.182;21.156;2023-04-28T04:22:06;44.97;;;22.57;;
16979;SDS011;42288;52.182;21.156;2023-04-28T04:24:33;46.83;;;24.23;;
16979;SDS011;42288;52.182;21.156;2023-04-28T04:26:58;48.60;;;23.87;;
16979;SDS011;42288;52.182;21.156;2023-04-28T04:29:24;54.37;;;26.07;;
16979;SDS011;42288;52.182;21.156;2023-04-28T04:31:50;39.63;;;21.07;;
16979;SDS011;42288;52.182;21.156;2023-04-28T04:34:15;40.37;;;20.67;;
16979;SDS011;42288;52.182;21.156;2023-04-28T04:36:41;38.30;;;19.27;;
16979;SDS011;42288;52.182;21.156;2023-04-28T04:39:06;42.17;;;19.63;;
16979;SDS011;42288;52.182;21.156;2023-04-28T04:41:32;38.73;;;19.13;;
16979;SDS011;42288;52.182;21.156;2023-04-28T04:43:58;41.23;;;19.17;;
16979;SDS011;42288;52.182;21.156;2023-04-28T04:46:23;44.00;;;19.23;;
16979;SDS011;42288;52.182;21.156;2023-04-28T04:48:49;35.00;;;17.80;;
16979;SDS011;42288;52.182;21.156;2023-04-28T04:51:15;39.53;;;18.13;;
16979;SDS011;42288;52.182;21.156;2023-04-28T04:53:40;37.03;;;18.43;;
16979;SDS011;42288;52.182;21.156;2023-04-28T04:56:06;44.60;;;20.00;;
16979;SDS011;42288;52.182;21.156;2023-04-28T04:58:31;42.57;;;20.17;;
16979;SDS011;42288;52.182;21.156;2023-04-28T05:00:57;37.73;;;19.33;;
16979;SDS011;42288;52.182;21.156;2023-04-28T05:03:23;43.70;;;20.70;;
16979;SDS011;42288;52.182;21.156;2023-04-28T05:05:48;44.43;;;20.60;;
16979;SDS011;42288;52.182;21.156;2023-04-28T05:08:14;42.93;;;20.67;;
16979;SDS011;42288;52.182;21.156;2023-04-28T05:10:40;42.60;;;22.53;;
16979;SDS011;42288;52.182;21.156;2023-04-28T05:13:06;49.53;;;21.83;;
16979;SDS011;42288;52.182;21.156;2023-04-28T05:15:31;42.80;;;21.97;;
16979;SDS011;42288;52.182;21.156;2023-04-28T05:17:57;39.53;;;21.07;;
16979;SDS011;42288;52.182;21.156;2023-04-28T05:20:23;42.87;;;22.07;;
16979;SDS011;42288;52.182;21.156;2023-04-28T05:22:48;47.30;;;22.17;;
16979;SDS011;42288;52.182;21.156;2023-04-28T05:25:14;42.80;;;20.17;;
16979;SDS011;42288;52.182;21.156;2023-04-28T05:27:40;43.10;;;22.17;;
16979;SDS011;42288;52.182;21.156;2023-04-28T05:30:06;41.67;;;21.70;;
16979;SDS011;42288;52.182;21.156;2023-04-28T05:32:33;40.30;;;20.00;;
16979;SDS011;42288;52.182;21.156;2023-04-28T05:34:59;33.47;;;16.60;;
16979;SDS011;42288;52.182;21.156;2023-04-28T05:37:25;33.67;;;15.20;;
16979;SDS011;42288;52.182;21.156;2023-04-28T05:39:50;37.33;;;17.07;;
16979;SDS011;42288;52.182;21.156;2023-04-28T05:42:16;30.37;;;14.73;;
16979;SDS011;42288;52.182;21.156;2023-04-28T05:44:42;27.43;;;13.20;;
16979;SDS011;42288;52.182;21.156;2023-04-28T05:47:07;31.67;;;12.63;;
16979;SDS011;42288;52.182;21.156;2023-04-28T05:49:33;26.00;;;13.23;;
16979;SDS011;42288;52.182;21.156;2023-04-28T05:51:58;31.67;;;13.87;;
16979;SDS011;42288;52.182;21.156;2023-04-28T05:54:24;27.37;;;14.23;;
16979;SDS011;42288;52.182;21.156;2023-04-28T05:56:51;32.03;;;12.90;;
16979;SDS011;42288;52.182;21.156;2023-04-28T05:59:17;31.13;;;13.47;;
16979;SDS011;42288;52.182;21.156;2023-04-28T06:01:42;29.57;;;13.50;;
16979;SDS011;42288;52.182;21.156;2023-04-28T06:04:08;31.80;;;12.90;;
16979;SDS011;42288;52.182;21.156;2023-04-28T06:06:33;24.70;;;12.80;;
16979;SDS011;42288;52.182;21.156;2023-04-28T06:08:59;24.10;;;12.20;;
16979;SDS011;42288;52.182;21.156;2023-04-28T06:11:25;25.77;;;12.70;;
16979;SDS011;42288;52.182;21.156;2023-04-28T06:13:51;24.13;;;12.03;;
16979;SDS011;42288;52.182;21.156;2023-04-28T06:16:17;24.60;;;12.67;;
16979;SDS011;42288;52.182;21.156;2023-04-28T06:18:42;24.50;;;11.70;;
16979;SDS011;42288;52.182;21.156;2023-04-28T06:21:08;26.57;;;12.10;;
16979;SDS011;42288;52.182;21.156;2023-04-28T06:23:34;26.03;;;12.27;;
16979;SDS011;42288;52.182;21.156;2023-04-28T06:26:00;31.93;;;12.70;;
16979;SDS011;42288;52.182;21.156;2023-04-28T06:28:25;25.53;;;12.07;;
16979;SDS011;42288;52.182;21.156;2023-04-28T06:30:51;25.80;;;12.30;;
16979;SDS011;42288;52.182;21.156;2023-04-28T06:33:17;21.63;;;10.93;;
16979;SDS011;42288;52.182;21.156;2023-04-28T06:35:42;24.97;;;11.17;;
16979;SDS011;42288;52.182;21.156;2023-04-28T06:38:08;23.13;;;11.50;;
16979;SDS011;42288;52.182;21.156;2023-04-28T06:40:33;21.67;;;10.77;;
16979;SDS011;42288;52.182;21.156;2023-04-28T06:42:59;21.03;;;10.27;;
16979;SDS011;42288;52.182;21.156;2023-04-28T06:45:25;20.73;;;10.37;;
16979;SDS011;42288;52.182;21.156;2023-04-28T06:47:51;21.43;;;9.50;;
16979;SDS011;42288;52.182;21.156;2023-04-28T06:50:19;22.83;;;9.47;;
16979;SDS011;42288;52.182;21.156;2023-04-28T06:52:45;18.83;;;10.30;;
16979;SDS011;42288;52.182;21.156;2023-04-28T06:55:15;13.37;;;7.43;;
16979;SDS011;42288;52.182;21.156;2023-04-28T06:57:41;17.47;;;8.20;;
16979;SDS011;42288;52.182;21.156;2023-04-28T07:00:07;18.30;;;9.30;;
16979;SDS011;42288;52.182;21.156;2023-04-28T07:02:33;21.70;;;10.20;;
16979;SDS011;42288;52.182;21.156;2023-04-28T07:05:00;20.47;;;9.67;;
16979;SDS011;42288;52.182;21.156;2023-04-28T07:07:27;24.20;;;9.77;;
16979;SDS011;42288;52.182;21.156;2023-04-28T07:09:53;18.13;;;8.43;;
16979;SDS011;42288;52.182;21.156;2023-04-28T07:12:19;17.30;;;8.80;;
16979;SDS011;42288;52.182;21.156;2023-04-28T07:14:45;23.43;;;9.50;;
16979;SDS011;42288;52.182;21.156;2023-04-28T07:17:11;21.33;;;8.50;;
16979;SDS011;42288;52.182;21.156;2023-04-28T07:19:36;20.90;;;9.17;;
16979;SDS011;42288;52.182;21.156;2023-04-28T07:22:02;19.77;;;9.10;;
16979;SDS011;42288;52.182;21.156;2023-04-28T07:24:27;19.57;;;7.67;;
16979;SDS011;42288;52.182;21.156;2023-04-28T07:26:54;16.20;;;7.10;;
16979;SDS011;42288;52.182;21.156;2023-04-28T07:29:21;16.17;;;6.93;;
16979;SDS011;42288;52.182;21.156;2023-04-28T07:31:47;16.73;;;7.77;;
16979;SDS011;42288;52.182;21.156;2023-04-28T07:34:12;15.60;;;6.80;;
16979;SDS011;42288;52.182;21.156;2023-04-28T07:36:38;17.13;;;7.20;;
16979;SDS011;42288;52.182;21.156;2023-04-28T07:39:04;11.37;;;6.37;;
16979;SDS011;42288;52.182;21.156;2023-04-28T07:41:30;9.63;;;5.23;;
16979;SDS011;42288;52.182;21.156;2023-04-28T07:44:01;16.73;;;6.37;;
16979;SDS011;42288;52.182;21.156;2023-04-28T07:46:26;12.37;;;5.67;;
16979;SDS011;42288;52.182;21.156;2023-04-28T07:48:52;11.33;;;5.57;;
16979;SDS011;42288;52.182;21.156;2023-04-28T07:51:18;13.47;;;5.43;;
16979;SDS011;42288;52.182;21.156;2023-04-28T07:53:43;9.07;;;4.40;;
16979;SDS011;42288;52.182;21.156;2023-04-28T07:56:09;10.23;;;4.57;;
16979;SDS011;42288;52.182;21.156;2023-04-28T07:58:36;9.50;;;4.53;;
16979;SDS011;42288;52.182;21.156;2023-04-28T08:01:01;13.83;;;5.73;;
16979;SDS011;42288;52.182;21.156;2023-04-28T08:03:27;10.27;;;5.40;;
16979;SDS011;42288;52.182;21.156;2023-04-28T08:05:52;9.20;;;4.70;;
16979;SDS011;42288;52.182;21.156;2023-04-28T08:08:18;7.37;;;3.43;;
16979;SDS011;42288;52.182;21.156;2023-04-28T08:10:44;10.90;;;3.03;;
16979;SDS011;42288;52.182;21.156;2023-04-28T08:13:09;4.83;;;2.60;;
16979;SDS011;42288;52.182;21.156;2023-04-28T08:15:35;6.20;;;3.17;;
16979;SDS011;42288;52.182;21.156;2023-04-28T08:18:01;8.33;;;3.70;;
16979;SDS011;42288;52.182;21.156;2023-04-28T08:20:26;8.70;;;3.47;;
16979;SDS011;42288;52.182;21.156;2023-04-28T08:22:53;8.97;;;3.97;;
16979;SDS011;42288;52.182;21.156;2023-04-28T08:25:19;6.03;;;3.57;;
16979;SDS011;42288;52.182;21.156;2023-04-28T08:27:44;8.87;;;3.00;;
16979;SDS011;42288;52.182;21.156;2023-04-28T08:30:10;6.07;;;3.20;;
16979;SDS011;42288;52.182;21.156;2023-04-28T08:32:36;7.50;;;2.90;;
16979;SDS011;42288;52.182;21.156;2023-04-28T08:35:01;7.87;;;2.60;;
16979;SDS011;42288;52.182;21.156;2023-04-28T08:37:27;5.10;;;2.40;;
16979;SDS011;42288;52.182;21.156;2023-04-28T08:39:53;5.43;;;2.77;;
16979;SDS011;42288;52.182;21.156;2023-04-28T08:42:28;5.67;;;2.40;;
16979;SDS011;42288;52.182;21.156;2023-04-28T08:44:55;4.90;;;2.30;;
16979;SDS011;42288;52.182;21.156;2023-04-28T08:47:23;5.87;;;2.67;;
16979;SDS011;42288;52.182;21.156;2023-04-28T08:50:01;4.40;;;1.83;;
16979;SDS011;42288;52.182;21.156;2023-04-28T08:52:29;5.53;;;2.40;;
16979;SDS011;42288;52.182;21.156;2023-04-28T08:54:55;4.07;;;2.07;;
16979;SDS011;42288;52.182;21.156;2023-04-28T08:57:22;5.93;;;3.00;;
16979;SDS011;42288;52.182;21.156;2023-04-28T08:59:52;4.57;;;2.20;;
16979;SDS011;42288;52.182;21.156;2023-04-28T09:02:17;3.90;;;2.30;;
16979;SDS011;42288;52.182;21.156;2023-04-28T09:04:45;5.87;;;2.60;;
16979;SDS011;42288;52.182;21.156;2023-04-28T09:07:11;4.37;;;2.40;;
16979;SDS011;42288;52.182;21.156;2023-04-28T09:09:38;6.80;;;2.50;;
16979;SDS011;42288;52.182;21.156;2023-04-28T09:12:04;5.90;;;2.83;;
16979;SDS011;42288;52.182;21.156;2023-04-28T09:14:32;5.97;;;3.20;;
16979;SDS011;42288;52.182;21.156;2023-04-28T09:17:00;7.17;;;2.80;;
16979;SDS011;42288;52.182;21.156;2023-04-28T09:19:33;6.83;;;3.80;;
16979;SDS011;42288;52.182;21.156;2023-04-28T09:22:00;6.97;;;3.30;;
16979;SDS011;42288;52.182;21.156;2023-04-28T09:24:27;6.50;;;2.90;;
16979;SDS011;42288;52.182;21.156;2023-04-28T09:26:52;6.70;;;3.20;;
16979;SDS011;42288;52.182;21.156;2023-04-28T09:29:18;8.70;;;3.10;;
16979;SDS011;42288;52.182;21.156;2023-04-28T09:31:43;5.70;;;2.90;;
16979;SDS011;42288;52.182;21.156;2023-04-28T09:34:09;4.37;;;2.40;;
16979;SDS011;42288;52.182;21.156;2023-04-28T09:36:36;5.70;;;2.87;;
16979;SDS011;42288;52.182;21.156;2023-04-28T09:39:02;7.47;;;3.30;;
16979;SDS011;42288;52.182;21.156;2023-04-28T09:41:41;3.90;;;2.60;;
16979;SDS011;42288;52.182;21.156;2023-04-28T09:46:41;7.90;;;2.80;;
16979;SDS011;42288;52.182;21.156;2023-04-28T09:49:08;5.80;;;2.90;;
16979;SDS011;42288;52.182;21.156;2023-04-28T09:51:34;9.00;;;2.73;;
16979;SDS011;42288;52.182;21.156;2023-04-28T09:54:00;6.73;;;2.73;;
16979;SDS011;42288;52.182;21.156;2023-04-28T09:56:27;6.53;;;3.07;;
16979;SDS011;42288;52.182;21.156;2023-04-28T09:58:54;5.17;;;2.93;;
16979;SDS011;42288;52.182;21.156;2023-04-28T10:01:23;6.20;;;3.20;;
16979;SDS011;42288;52.182;21.156;2023-04-28T10:03:56;5.80;;;2.80;;
16979;SDS011;42288;52.182;21.156;2023-04-28T10:06:25;6.77;;;3.40;;
16979;SDS011;42288;52.182;21.156;2023-04-28T10:08:53;7.77;;;3.47;;
16979;SDS011;42288;52.182;21.156;2023-04-28T10:11:21;5.73;;;3.13;;
16979;SDS011;42288;52.182;21.156;2023-04-28T10:13:49;8.57;;;3.00;;
16979;SDS011;42288;52.182;21.156;2023-04-28T10:16:15;8.07;;;3.47;;
16979;SDS011;42288;52.182;21.156;2023-04-28T10:18:41;11.47;;;4.33;;
16979;SDS011;42288;52.182;21.156;2023-04-28T10:21:08;4.80;;;3.13;;
16979;SDS011;42288;52.182;21.156;2023-04-28T10:26:17;7.27;;;3.10;;
16979;SDS011;42288;52.182;21.156;2023-04-28T10:28:47;7.57;;;3.47;;
16979;SDS011;42288;52.182;21.156;2023-04-28T10:31:15;4.07;;;2.90;;
16979;SDS011;42288;52.182;21.156;2023-04-28T10:33:42;5.90;;;2.87;;
16979;SDS011;42288;52.182;21.156;2023-04-28T10:36:08;5.97;;;2.80;;
16979;SDS011;42288;52.182;21.156;2023-04-28T10:38:35;5.30;;;2.70;;
16979;SDS011;42288;52.182;21.156;2023-04-28T10:41:32;7.97;;;2.80;;
16979;SDS011;42288;52.182;21.156;2023-04-28T10:43:58;4.15;;;2.63;;
16979;SDS011;42288;52.182;21.156;2023-04-28T10:46:24;3.67;;;2.50;;
16979;SDS011;42288;52.182;21.156;2023-04-28T10:56:09;8.60;;;2.60;;
16979;SDS011;42288;52.182;21.156;2023-04-28T10:58:57;6.85;;;2.67;;
16979;SDS011;42288;52.182;21.156;2023-04-28T11:09:02;9.25;;;3.22;;
16979;SDS011;42288;52.182;21.156;2023-04-28T11:11:38;8.77;;;2.70;;
16979;SDS011;42288;52.182;21.156;2023-04-28T11:16:49;6.00;;;2.60;;
16979;SDS011;42288;52.182;21.156;2023-04-28T11:19:17;4.33;;;2.40;;
16979;SDS011;42288;52.182;21.156;2023-04-28T11:21:44;4.73;;;2.50;;
16979;SDS011;42288;52.182;21.156;2023-04-28T11:24:12;5.05;;;2.25;;
16979;SDS011;42288;52.182;21.156;2023-04-28T11:26:38;4.00;;;2.20;;
16979;SDS011;42288;52.182;21.156;2023-04-28T11:29:04;4.85;;;2.10;;
16979;SDS011;42288;52.182;21.156;2023-04-28T11:31:30;4.55;;;2.30;;
16979;SDS011;42288;52.182;21.156;2023-04-28T11:33:57;5.68;;;2.60;;
16979;SDS011;42288;52.182;21.156;2023-04-28T11:36:32;6.10;;;2.78;;
16979;SDS011;42288;52.182;21.156;2023-04-28T11:39:00;5.72;;;2.45;;
16979;SDS011;42288;52.182;21.156;2023-04-28T11:41:29;5.85;;;2.22;;
16979;SDS011;42288;52.182;21.156;2023-04-28T11:43:56;7.03;;;2.47;;
16979;SDS011;42288;52.182;21.156;2023-04-28T11:46:23;5.30;;;2.70;;
16979;SDS011;42288;52.182;21.156;2023-04-28T11:49:02;4.87;;;2.40;;
16979;SDS011;42288;52.182;21.156;2023-04-28T11:51:29;5.27;;;2.67;;
16979;SDS011;42288;52.182;21.156;2023-04-28T11:53:56;4.83;;;2.30;;
16979;SDS011;42288;52.182;21.156;2023-04-28T11:56:22;5.90;;;2.60;;
16979;SDS011;42288;52.182;21.156;2023-04-28T11:59:04;5.97;;;2.47;;
16979;SDS011;42288;52.182;21.156;2023-04-28T12:01:33;4.30;;;2.27;;
16979;SDS011;42288;52.182;21.156;2023-04-28T12:04:02;4.77;;;2.40;;
16979;SDS011;42288;52.182;21.156;2023-04-28T12:06:28;5.73;;;2.57;;
16979;SDS011;42288;52.182;21.156;2023-04-28T12:08:54;4.20;;;2.30;;
16979;SDS011;42288;52.182;21.156;2023-04-28T12:11:20;5.50;;;2.50;;
16979;SDS011;42288;52.182;21.156;2023-04-28T12:14:04;9.73;;;2.67;;
16979;SDS011;42288;52.182;21.156;2023-04-28T12:16:37;9.37;;;2.57;;
16979;SDS011;42288;52.182;21.156;2023-04-28T12:19:07;4.43;;;2.50;;
16979;SDS011;42288;52.182;21.156;2023-04-28T12:21:34;9.33;;;2.63;;
16979;SDS011;42288;52.182;21.156;2023-04-28T12:24:11;7.50;;;2.87;;
16979;SDS011;42288;52.182;21.156;2023-04-28T12:26:44;6.80;;;2.57;;
16979;SDS011;42288;52.182;21.156;2023-04-28T12:29:33;8.50;;;2.37;;
16979;SDS011;42288;52.182;21.156;2023-04-28T12:32:06;5.53;;;2.90;;
16979;SDS011;42288;52.182;21.156;2023-04-28T12:34:33;5.23;;;2.70;;
16979;SDS011;42288;52.182;21.156;2023-04-28T12:37:00;5.30;;;2.03;;
16979;SDS011;42288;52.182;21.156;2023-04-28T12:39:26;5.10;;;2.50;;
16979;SDS011;42288;52.182;21.156;2023-04-28T12:41:52;5.07;;;2.63;;
16979;SDS011;42288;52.182;21.156;2023-04-28T12:44:19;5.70;;;2.60;;
16979;SDS011;42288;52.182;21.156;2023-04-28T12:46:46;8.10;;;2.80;;
16979;SDS011;42288;52.182;21.156;2023-04-28T12:49:12;5.20;;;2.97;;
16979;SDS011;42288;52.182;21.156;2023-04-28T12:51:38;5.10;;;3.20;;
16979;SDS011;42288;52.182;21.156;2023-04-28T12:54:03;5.93;;;2.83;;
16979;SDS011;42288;52.182;21.156;2023-04-28T12:56:29;5.20;;;2.73;;
16979;SDS011;42288;52.182;21.156;2023-04-28T12:58:55;4.90;;;3.07;;
16979;SDS011;42288;52.182;21.156;2023-04-28T13:01:20;6.97;;;3.07;;
16979;SDS011;42288;52.182;21.156;2023-04-28T13:03:46;7.37;;;2.97;;
16979;SDS011;42288;52.182;21.156;2023-04-28T13:06:12;10.10;;;3.40;;
16979;SDS011;42288;52.182;21.156;2023-04-28T13:08:38;7.80;;;3.30;;
16979;SDS011;42288;52.182;21.156;2023-04-28T13:11:03;5.90;;;2.83;;
16979;SDS011;42288;52.182;21.156;2023-04-28T13:13:30;6.87;;;3.53;;
16979;SDS011;42288;52.182;21.156;2023-04-28T13:15:55;7.53;;;3.50;;
16979;SDS011;42288;52.182;21.156;2023-04-28T13:18:21;5.80;;;3.43;;
16979;SDS011;42288;52.182;21.156;2023-04-28T13:20:47;6.17;;;3.20;;
16979;SDS011;42288;52.182;21.156;2023-04-28T13:23:13;7.83;;;3.80;;
16979;SDS011;42288;52.182;21.156;2023-04-28T13:25:38;6.97;;;3.50;;
16979;SDS011;42288;52.182;21.156;2023-04-28T13:28:04;4.73;;;3.30;;
16979;SDS011;42288;52.182;21.156;2023-04-28T13:30:30;5.77;;;3.60;;
16979;SDS011;42288;52.182;21.156;2023-04-28T13:32:56;4.60;;;3.00;;
16979;SDS011;42288;52.182;21.156;2023-04-28T13:35:21;5.97;;;3.70;;
16979;SDS011;42288;52.182;21.156;2023-04-28T13:37:48;7.07;;;3.60;;
16979;SDS011;42288;52.182;21.156;2023-04-28T13:40:14;6.00;;;3.43;;
16979;SDS011;42288;52.182;21.156;2023-04-28T13:42:39;7.27;;;3.50;;
16979;SDS011;42288;52.182;21.156;2023-04-28T13:45:05;7.72;;;3.53;;
16979;SDS011;42288;52.182;21.156;2023-04-28T13:47:31;9.10;;;3.80;;
16979;SDS011;42288;52.182;21.156;2023-04-28T13:49:57;6.55;;;3.78;;
16979;SDS011;42288;52.182;21.156;2023-04-28T13:52:24;7.05;;;3.55;;
16979;SDS011;42288;52.182;21.156;2023-04-28T13:54:50;6.15;;;3.28;;
16979;SDS011;42288;52.182;21.156;2023-04-28T13:57:16;9.80;;;3.90;;
16979;SDS011;42288;52.182;21.156;2023-04-28T13:59:42;6.85;;;3.67;;
16979;SDS011;42288;52.182;21.156;2023-04-28T14:02:07;5.47;;;3.70;;
16979;SDS011;42288;52.182;21.156;2023-04-28T14:04:36;8.88;;;3.97;;
16979;SDS011;42288;52.182;21.156;2023-04-28T14:07:01;8.60;;;3.85;;
16979;SDS011;42288;52.182;21.156;2023-04-28T14:09:27;7.50;;;3.28;;
16979;SDS011;42288;52.182;21.156;2023-04-28T14:11:53;6.72;;;3.67;;
16979;SDS011;42288;52.182;21.156;2023-04-28T14:14:22;5.95;;;4.03;;
16979;SDS011;42288;52.182;21.156;2023-04-28T14:16:48;5.35;;;3.30;;
16979;SDS011;42288;52.182;21.156;2023-04-28T14:19:13;7.10;;;3.67;;
16979;SDS011;42288;52.182;21.156;2023-04-28T14:21:42;6.95;;;3.50;;
16979;SDS011;42288;52.182;21.156;2023-04-28T14:24:07;7.55;;;3.80;;
16979;SDS011;42288;52.182;21.156;2023-04-28T14:26:36;8.93;;;3.90;;
16979;SDS011;42288;52.182;21.156;2023-04-28T14:29:02;5.57;;;3.65;;
16979;SDS011;42288;52.182;21.156;2023-04-28T14:31:29;7.80;;;4.18;;
16979;SDS011;42288;52.182;21.156;2023-04-28T14:33:55;7.65;;;3.55;;
16979;SDS011;42288;52.182;21.156;2023-04-28T14:36:20;10.18;;;4.20;;
16979;SDS011;42288;52.182;21.156;2023-04-28T14:38:46;12.20;;;4.28;;
16979;SDS011;42288;52.182;21.156;2023-04-28T14:41:12;7.07;;;3.88;;